• Join FlightAware (Why Join?)
  • Login
  • US Flag 
02:46PM EDT


 

Airport Tracker/Info


-or-


 

Live Flight TrackerFlight Track Log ✈ AWI3704 ✈ 13 de Jul de 2013 ✈ KALB - KPHL

Flight Track Log - Related Links

Times and Time Zones

All times are in EDT time to prevent confusion due to time zone crossing. See the AWI3704 flight status page for this flight to view local times or setup timezone preferences in your user account.

Time Position Orientation Groundspeed Altitude Reporting Facility
EDT Latitude Longitude Course Direction KTS MPH feet Rate Location/Type
11:38AM 42.8042 -73.8664 309° West 222 255 3,400  Level Boston Center
11:40AM 42.7334 -74.1641 270° West  Level FlightAware Approximate
11:40AM 42.7922 -73.9764 262° West 255 293 5,600  Level Boston Center
11:41AM 42.7333 -74.2855 270° West  Level FlightAware Approximate
11:41AM 42.7494 -74.0544 233° Southwest 261 300 7,900  Level Boston Center
11:42AM 42.6790 -74.3758 220° Southwest  Level FlightAware Approximate
11:42AM 42.6942 -74.1406 229° Southwest 270 311 10,200  Level Boston Center
11:43AM 42.6103 -74.4530 220° Southwest  Level FlightAware Approximate
11:43AM 42.6469 -74.2183 230° Southwest 288 331 11,800  Level Boston Center
11:44AM 42.5831 -74.3153 228° Southwest 309 356 13,900 1,800 Climbing Boston Center
11:45AM 42.5231 -74.4092 229° Southwest 326 375 15,500 1,020 Climbing Boston Center
11:46AM 42.4631 -74.5031 229° Southwest 335 386 16,000 240 Climbing Boston Center
11:47AM 42.3986 -74.6050 229° Southwest 348 400 16,000  Level Boston Center
11:48AM 42.3403 -74.7014 231° Southwest 348 400 16,000  Level Boston Center
11:50AM 42.2158 -74.8981 230° Southwest 344 396 16,000  Level New York Center
11:51AM 42.1378 -74.9883 221° Southwest 344 396 16,000  Level New York Center
11:52AM 42.0625 -75.0561 214° Southwest 344 396 16,000  Level New York Center
11:53AM 41.9897 -75.1156 211° Southwest 344 396 16,000  Level New York Center
11:54AM 41.9081 -75.1825 211° Southwest 350 403 16,000  Level New York Center
11:55AM 41.8178 -75.2544 211° Southwest 350 403 16,000  Level New York Center
11:56AM 41.7361 -75.3214 211° Southwest 350 403 16,000  Level New York Center
11:57AM 41.6631 -75.3803 211° Southwest 350 403 16,000 -780 Level New York Center
11:58AM 41.5836 -75.4439 211° Southwest 350 403 14,500 -1,620 Descending New York Center
11:59AM 41.4997 -75.5103 211° Southwest 337 388 12,800 -1,320 Descending New York Center
12:00PM 41.4267 -75.5686 211° Southwest 325 374 12,000 -420 Descending New York Center
12:01PM 41.3469 -75.6319 211° Southwest 325 374 12,000  Level New York Center
12:02PM 41.2656 -75.6842 206° Southwest 330 380 12,000  Level New York Center
12:03PM 41.1864 -75.6867 181° South 316 364 12,000 -240 Level New York Center
12:04PM 41.0989 -75.6886 181° South 323 372 11,600 -960 Descending New York Center
12:05PM 41.0003 -75.6539 165° South 328 377 10,100 -840 Descending New York Center
12:06PM 40.9161 -75.6203 163° South 328 377 10,000 -60 Descending New York Center
12:07PM 40.8425 -75.5906 163° South 320 368 10,000  Level New York Center
12:08PM 40.7583 -75.5572 163° South 314 361 10,000  Level New York Center
12:09PM 40.6783 -75.5242 163° South 314 361 10,000  Level New York Center
12:10PM 40.5983 -75.4914 163° South 308 354 10,000  Level New York Center
12:11PM 40.5225 -75.4614 163° South 302 348 10,000  Level New York Center
12:12PM 40.4425 -75.4289 163° South 282 325 10,000 -420 Level New York Center
12:13PM 40.3814 -75.3975 159° South 249 287 9,200 -1,140 Descending New York Center
12:14PM 40.3228 -75.4044 185° South 220 253 7,800 -1,440 Descending New York Center
12:15PM 40.2722 -75.4119 186° South 215 247 6,400 -900 Descending New York Center
12:16PM 40.2186 -75.4003 171° South 209 241 6,000 -900 Descending New York Center
12:17PM 40.1633 -75.3775 163° South 199 229 4,700 -1,380 Descending New York Center
12:18PM 40.1161 -75.3525 158° South 186 214 3,300 -840 Descending New York Center
12:19PM 40.0672 -75.3278 159° South 186 214 3,100 -120 Descending New York Center
12:20PM 40.0528 -75.2697 108° East 161 185 3,100 -60 Level New York Center
12:21PM 40.0833 -75.1833 65° Northeast 208 239 3,000 -60 Descending Philadelphia TRACON
12:22PM 40.1167 -75.2500 303° West 199 229 3,000  Level Philadelphia TRACON
12:23PM 40.0833 -75.3000 229° Southwest 180 207 3,100 60 Climbing Philadelphia TRACON